sensor_id;sensor_type;location;lat;lon;timestamp;temperature;humidity
28548;DHT22;15750;49.600;8.746;2022-10-24T00:01:57;22.00;60.40
28548;DHT22;15750;49.600;8.746;2022-10-24T00:04:44;22.00;60.50
28548;DHT22;15750;49.600;8.746;2022-10-24T00:07:31;22.00;60.50
28548;DHT22;15750;49.600;8.746;2022-10-24T00:10:19;22.00;60.50
28548;DHT22;15750;49.600;8.746;2022-10-24T00:13:08;22.00;60.60
28548;DHT22;15750;49.600;8.746;2022-10-24T00:15:55;22.00;60.60
28548;DHT22;15750;49.600;8.746;2022-10-24T00:18:42;22.00;60.50
28548;DHT22;15750;49.600;8.746;2022-10-24T00:21:30;22.00;60.80
28548;DHT22;15750;49.600;8.746;2022-10-24T00:24:17;22.00;60.60
28548;DHT22;15750;49.600;8.746;2022-10-24T00:27:04;22.00;60.70
28548;DHT22;15750;49.600;8.746;2022-10-24T00:29:53;22.00;60.70
28548;DHT22;15750;49.600;8.746;2022-10-24T00:32:40;22.00;60.80
28548;DHT22;15750;49.600;8.746;2022-10-24T00:35:28;21.90;60.60
28548;DHT22;15750;49.600;8.746;2022-10-24T00:38:15;22.00;60.70
28548;DHT22;15750;49.600;8.746;2022-10-24T00:41:02;22.00;60.70
28548;DHT22;15750;49.600;8.746;2022-10-24T00:43:49;21.90;60.50
28548;DHT22;15750;49.600;8.746;2022-10-24T00:46:38;22.00;60.70
28548;DHT22;15750;49.600;8.746;2022-10-24T00:49:29;22.00;60.70
28548;DHT22;15750;49.600;8.746;2022-10-24T00:52:22;22.00;60.70
28548;DHT22;15750;49.600;8.746;2022-10-24T00:55:13;22.00;60.60
28548;DHT22;15750;49.600;8.746;2022-10-24T00:58:01;21.90;60.50
28548;DHT22;15750;49.600;8.746;2022-10-24T01:00:50;22.00;60.40
28548;DHT22;15750;49.600;8.746;2022-10-24T01:03:39;22.00;60.50
28548;DHT22;15750;49.600;8.746;2022-10-24T01:06:37;22.00;60.50
28548;DHT22;15750;49.600;8.746;2022-10-24T01:13:19;22.00;60.60
28548;DHT22;15750;49.600;8.746;2022-10-24T01:16:12;22.00;60.40
28548;DHT22;15750;49.600;8.746;2022-10-24T01:19:11;22.00;60.40
28548;DHT22;15750;49.600;8.746;2022-10-24T01:22:15;22.00;60.30
28548;DHT22;15750;49.600;8.746;2022-10-24T01:25:10;22.00;60.30
28548;DHT22;15750;49.600;8.746;2022-10-24T01:28:03;22.00;60.20
28548;DHT22;15750;49.600;8.746;2022-10-24T01:31:02;22.00;60.30
28548;DHT22;15750;49.600;8.746;2022-10-24T01:33:56;22.00;60.40
28548;DHT22;15750;49.600;8.746;2022-10-24T01:36:51;22.00;60.30
28548;DHT22;15750;49.600;8.746;2022-10-24T01:39:45;22.00;60.40
28548;DHT22;15750;49.600;8.746;2022-10-24T01:42:35;22.00;60.20
28548;DHT22;15750;49.600;8.746;2022-10-24T01:45:27;22.00;60.20
28548;DHT22;15750;49.600;8.746;2022-10-24T01:48:20;22.00;60.20
28548;DHT22;15750;49.600;8.746;2022-10-24T01:51:12;22.00;60.10
28548;DHT22;15750;49.600;8.746;2022-10-24T01:54:01;22.00;60.00
28548;DHT22;15750;49.600;8.746;2022-10-24T01:56:49;22.00;60.00
28548;DHT22;15750;49.600;8.746;2022-10-24T01:59:40;22.00;60.00
28548;DHT22;15750;49.600;8.746;2022-10-24T02:02:31;22.00;60.00
28548;DHT22;15750;49.600;8.746;2022-10-24T02:05:25;22.00;59.90
28548;DHT22;15750;49.600;8.746;2022-10-24T02:08:18;22.00;60.00
28548;DHT22;15750;49.600;8.746;2022-10-24T02:11:08;22.00;59.90
28548;DHT22;15750;49.600;8.746;2022-10-24T02:13:58;22.00;59.90
28548;DHT22;15750;49.600;8.746;2022-10-24T02:16:49;22.00;59.80
28548;DHT22;15750;49.600;8.746;2022-10-24T02:19:36;22.00;59.80
28548;DHT22;15750;49.600;8.746;2022-10-24T02:22:27;22.00;59.80
28548;DHT22;15750;49.600;8.746;2022-10-24T02:25:20;22.00;59.80
28548;DHT22;15750;49.600;8.746;2022-10-24T02:28:14;22.00;59.80
28548;DHT22;15750;49.600;8.746;2022-10-24T02:31:05;22.00;59.70
28548;DHT22;15750;49.600;8.746;2022-10-24T02:33:55;22.00;59.70
28548;DHT22;15750;49.600;8.746;2022-10-24T02:36:44;22.00;59.70
28548;DHT22;15750;49.600;8.746;2022-10-24T02:39:34;22.00;59.80
28548;DHT22;15750;49.600;8.746;2022-10-24T02:42:23;22.00;59.90
28548;DHT22;15750;49.600;8.746;2022-10-24T02:45:18;22.00;59.80
28548;DHT22;15750;49.600;8.746;2022-10-24T02:48:11;22.00;59.80
28548;DHT22;15750;49.600;8.746;2022-10-24T02:51:00;22.00;59.80
28548;DHT22;15750;49.600;8.746;2022-10-24T02:53:49;22.00;59.90
28548;DHT22;15750;49.600;8.746;2022-10-24T02:56:40;22.00;59.70
28548;DHT22;15750;49.600;8.746;2022-10-24T02:59:30;22.00;59.80
28548;DHT22;15750;49.600;8.746;2022-10-24T03:02:17;22.00;59.70
28548;DHT22;15750;49.600;8.746;2022-10-24T03:05:05;22.00;59.70
28548;DHT22;15750;49.600;8.746;2022-10-24T03:07:53;21.90;60.50
28548;DHT22;15750;49.600;8.746;2022-10-24T03:10:40;22.00;59.70
28548;DHT22;15750;49.600;8.746;2022-10-24T03:13:29;22.00;59.70
28548;DHT22;15750;49.600;8.746;2022-10-24T03:16:16;22.00;59.80
28548;DHT22;15750;49.600;8.746;2022-10-24T03:19:03;22.00;59.70
28548;DHT22;15750;49.600;8.746;2022-10-24T03:21:50;22.00;59.70
28548;DHT22;15750;49.600;8.746;2022-10-24T03:24:39;22.00;59.70
28548;DHT22;15750;49.600;8.746;2022-10-24T03:27:39;22.00;59.70
28548;DHT22;15750;49.600;8.746;2022-10-24T03:30:28;22.00;59.70
28548;DHT22;15750;49.600;8.746;2022-10-24T03:33:16;22.00;59.70
28548;DHT22;15750;49.600;8.746;2022-10-24T03:36:04;22.00;59.70
28548;DHT22;15750;49.600;8.746;2022-10-24T03:38:51;22.00;59.70
28548;DHT22;15750;49.600;8.746;2022-10-24T03:41:38;22.00;59.60
28548;DHT22;15750;49.600;8.746;2022-10-24T03:44:26;22.00;59.60
28548;DHT22;15750;49.600;8.746;2022-10-24T03:47:14;22.00;59.60
28548;DHT22;15750;49.600;8.746;2022-10-24T03:50:02;22.00;59.50
28548;DHT22;15750;49.600;8.746;2022-10-24T03:52:50;22.00;59.40
28548;DHT22;15750;49.600;8.746;2022-10-24T03:55:37;22.00;59.50
28548;DHT22;15750;49.600;8.746;2022-10-24T03:58:25;22.00;59.60
28548;DHT22;15750;49.600;8.746;2022-10-24T04:01:12;22.00;59.50
28548;DHT22;15750;49.600;8.746;2022-10-24T04:04:04;22.00;59.50
28548;DHT22;15750;49.600;8.746;2022-10-24T04:06:51;22.00;59.50
28548;DHT22;15750;49.600;8.746;2022-10-24T04:09:39;22.00;59.30
28548;DHT22;15750;49.600;8.746;2022-10-24T04:12:26;22.00;59.30
28548;DHT22;15750;49.600;8.746;2022-10-24T04:15:13;22.00;59.20
28548;DHT22;15750;49.600;8.746;2022-10-24T04:18:01;22.00;59.10
28548;DHT22;15750;49.600;8.746;2022-10-24T04:20:49;22.00;59.00
28548;DHT22;15750;49.600;8.746;2022-10-24T04:23:37;22.00;59.10
28548;DHT22;15750;49.600;8.746;2022-10-24T04:26:25;22.10;59.10
28548;DHT22;15750;49.600;8.746;2022-10-24T04:29:12;22.10;59.10
28548;DHT22;15750;49.600;8.746;2022-10-24T04:32:00;22.10;59.00
28548;DHT22;15750;49.600;8.746;2022-10-24T04:34:48;22.10;59.00
28548;DHT22;15750;49.600;8.746;2022-10-24T04:37:36;22.20;59.10
28548;DHT22;15750;49.600;8.746;2022-10-24T04:40:24;22.20;59.10
28548;DHT22;15750;49.600;8.746;2022-10-24T04:43:11;22.20;59.10
28548;DHT22;15750;49.600;8.746;2022-10-24T04:45:59;22.20;59.00
28548;DHT22;15750;49.600;8.746;2022-10-24T04:48:47;22.20;58.90
28548;DHT22;15750;49.600;8.746;2022-10-24T04:51:35;22.30;58.80
28548;DHT22;15750;49.600;8.746;2022-10-24T04:54:23;22.20;58.70
28548;DHT22;15750;49.600;8.746;2022-10-24T04:57:10;22.20;58.70
28548;DHT22;15750;49.600;8.746;2022-10-24T04:59:57;22.30;58.70
28548;DHT22;15750;49.600;8.746;2022-10-24T05:02:44;22.30;58.70
28548;DHT22;15750;49.600;8.746;2022-10-24T05:05:31;22.30;58.70
28548;DHT22;15750;49.600;8.746;2022-10-24T05:08:18;22.30;58.80
28548;DHT22;15750;49.600;8.746;2022-10-24T05:11:07;22.30;58.70
28548;DHT22;15750;49.600;8.746;2022-10-24T05:13:56;22.30;58.60
28548;DHT22;15750;49.600;8.746;2022-10-24T05:16:43;22.30;58.60
28548;DHT22;15750;49.600;8.746;2022-10-24T05:19:32;22.40;58.60
28548;DHT22;15750;49.600;8.746;2022-10-24T05:22:21;22.40;58.50
28548;DHT22;15750;49.600;8.746;2022-10-24T05:25:08;22.40;58.50
28548;DHT22;15750;49.600;8.746;2022-10-24T05:27:57;22.40;58.40
28548;DHT22;15750;49.600;8.746;2022-10-24T05:30:45;22.40;59.00
28548;DHT22;15750;49.600;8.746;2022-10-24T05:33:32;22.40;58.50
28548;DHT22;15750;49.600;8.746;2022-10-24T05:36:19;22.40;58.40
28548;DHT22;15750;49.600;8.746;2022-10-24T05:39:06;22.40;58.40
28548;DHT22;15750;49.600;8.746;2022-10-24T05:41:54;22.40;58.30
28548;DHT22;15750;49.600;8.746;2022-10-24T05:44:43;22.40;58.40
28548;DHT22;15750;49.600;8.746;2022-10-24T05:47:30;22.40;58.30
28548;DHT22;15750;49.600;8.746;2022-10-24T05:50:17;22.50;58.30
28548;DHT22;15750;49.600;8.746;2022-10-24T05:53:05;22.40;58.40
28548;DHT22;15750;49.600;8.746;2022-10-24T05:55:53;22.50;58.40
28548;DHT22;15750;49.600;8.746;2022-10-24T05:58:40;22.50;58.40
28548;DHT22;15750;49.600;8.746;2022-10-24T06:01:29;22.50;58.40
28548;DHT22;15750;49.600;8.746;2022-10-24T06:03:58;22.50;58.40
28548;DHT22;15750;49.600;8.746;2022-10-24T06:06:27;22.50;58.40
28548;DHT22;15750;49.600;8.746;2022-10-24T06:08:56;22.50;58.40
28548;DHT22;15750;49.600;8.746;2022-10-24T06:11:24;22.50;58.30
28548;DHT22;15750;49.600;8.746;2022-10-24T06:13:53;22.50;58.20
28548;DHT22;15750;49.600;8.746;2022-10-24T06:16:22;22.50;58.30
28548;DHT22;15750;49.600;8.746;2022-10-24T06:18:55;22.50;58.30
28548;DHT22;15750;49.600;8.746;2022-10-24T06:21:23;22.50;58.20
28548;DHT22;15750;49.600;8.746;2022-10-24T06:23:52;22.50;58.30
28548;DHT22;15750;49.600;8.746;2022-10-24T06:26:21;22.50;58.30
28548;DHT22;15750;49.600;8.746;2022-10-24T06:28:50;22.50;58.30
28548;DHT22;15750;49.600;8.746;2022-10-24T06:31:19;22.50;58.30
28548;DHT22;15750;49.600;8.746;2022-10-24T06:33:52;22.50;58.30
28548;DHT22;15750;49.600;8.746;2022-10-24T06:36:22;22.50;58.30
28548;DHT22;15750;49.600;8.746;2022-10-24T06:38:56;22.50;58.20
28548;DHT22;15750;49.600;8.746;2022-10-24T06:41:35;22.50;58.20
28548;DHT22;15750;49.600;8.746;2022-10-24T06:44:14;22.50;58.10
28548;DHT22;15750;49.600;8.746;2022-10-24T06:46:43;22.50;58.20
28548;DHT22;15750;49.600;8.746;2022-10-24T06:49:13;22.50;58.10
28548;DHT22;15750;49.600;8.746;2022-10-24T06:51:43;22.50;58.10
28548;DHT22;15750;49.600;8.746;2022-10-24T06:54:12;22.50;58.20
28548;DHT22;15750;49.600;8.746;2022-10-24T06:56:40;22.50;58.30
28548;DHT22;15750;49.600;8.746;2022-10-24T06:59:10;22.50;58.20
28548;DHT22;15750;49.600;8.746;2022-10-24T07:01:41;22.50;58.20
28548;DHT22;15750;49.600;8.746;2022-10-24T07:04:12;22.50;58.30
28548;DHT22;15750;49.600;8.746;2022-10-24T07:06:46;22.50;58.20
28548;DHT22;15750;49.600;8.746;2022-10-24T07:09:15;22.50;58.20
28548;DHT22;15750;49.600;8.746;2022-10-24T07:11:44;22.50;58.30
28548;DHT22;15750;49.600;8.746;2022-10-24T07:14:13;22.50;58.30
28548;DHT22;15750;49.600;8.746;2022-10-24T07:16:42;22.50;58.20
28548;DHT22;15750;49.600;8.746;2022-10-24T07:19:21;22.50;58.30
28548;DHT22;15750;49.600;8.746;2022-10-24T07:23:07;22.50;58.30
28548;DHT22;15750;49.600;8.746;2022-10-24T07:25:37;22.60;58.30
28548;DHT22;15750;49.600;8.746;2022-10-24T07:28:07;22.50;58.40
28548;DHT22;15750;49.600;8.746;2022-10-24T07:30:37;22.50;58.40
28548;DHT22;15750;49.600;8.746;2022-10-24T07:33:06;22.50;58.40
28548;DHT22;15750;49.600;8.746;2022-10-24T07:35:41;22.50;58.40
28548;DHT22;15750;49.600;8.746;2022-10-24T07:38:10;22.50;58.30
28548;DHT22;15750;49.600;8.746;2022-10-24T07:40:44;22.50;58.40
28548;DHT22;15750;49.600;8.746;2022-10-24T07:43:14;22.50;58.40
28548;DHT22;15750;49.600;8.746;2022-10-24T07:45:43;22.50;58.40
28548;DHT22;15750;49.600;8.746;2022-10-24T07:48:18;22.50;58.50
28548;DHT22;15750;49.600;8.746;2022-10-24T07:50:48;22.50;58.50
28548;DHT22;15750;49.600;8.746;2022-10-24T07:53:17;22.50;58.50
28548;DHT22;15750;49.600;8.746;2022-10-24T07:55:45;22.50;58.50
28548;DHT22;15750;49.600;8.746;2022-10-24T07:58:14;22.50;58.60
28548;DHT22;15750;49.600;8.746;2022-10-24T08:00:43;22.50;58.50
28548;DHT22;15750;49.600;8.746;2022-10-24T08:03:13;22.50;58.50
28548;DHT22;15750;49.600;8.746;2022-10-24T08:05:42;22.50;58.60
28548;DHT22;15750;49.600;8.746;2022-10-24T08:08:12;22.50;58.60
28548;DHT22;15750;49.600;8.746;2022-10-24T08:11:00;22.50;58.60
28548;DHT22;15750;49.600;8.746;2022-10-24T08:13:29;22.50;58.60
28548;DHT22;15750;49.600;8.746;2022-10-24T08:15:58;22.50;58.60
28548;DHT22;15750;49.600;8.746;2022-10-24T08:18:26;22.50;58.70
28548;DHT22;15750;49.600;8.746;2022-10-24T08:20:58;22.50;58.70
28548;DHT22;15750;49.600;8.746;2022-10-24T08:23:28;22.50;58.70
28548;DHT22;15750;49.600;8.746;2022-10-24T08:25:57;22.60;58.60
28548;DHT22;15750;49.600;8.746;2022-10-24T08:28:26;22.60;58.70
28548;DHT22;15750;49.600;8.746;2022-10-24T08:30:55;22.60;58.70
28548;DHT22;15750;49.600;8.746;2022-10-24T08:33:25;22.60;58.70
28548;DHT22;15750;49.600;8.746;2022-10-24T08:35:57;22.60;58.70
28548;DHT22;15750;49.600;8.746;2022-10-24T08:38:29;22.60;58.70
28548;DHT22;15750;49.600;8.746;2022-10-24T08:40:59;22.60;58.70
28548;DHT22;15750;49.600;8.746;2022-10-24T08:43:27;22.60;58.70
28548;DHT22;15750;49.600;8.746;2022-10-24T08:46:01;22.60;58.80
28548;DHT22;15750;49.600;8.746;2022-10-24T08:48:39;22.60;58.60
28548;DHT22;15750;49.600;8.746;2022-10-24T08:51:19;22.60;58.60
28548;DHT22;15750;49.600;8.746;2022-10-24T08:53:56;22.60;58.70
28548;DHT22;15750;49.600;8.746;2022-10-24T08:56:28;22.60;58.70
28548;DHT22;15750;49.600;8.746;2022-10-24T08:59:01;22.60;58.60
28548;DHT22;15750;49.600;8.746;2022-10-24T09:01:32;22.60;58.60
28548;DHT22;15750;49.600;8.746;2022-10-24T09:04:08;22.60;58.60
28548;DHT22;15750;49.600;8.746;2022-10-24T09:06:37;22.60;58.90
28548;DHT22;15750;49.600;8.746;2022-10-24T09:09:18;22.60;58.60
28548;DHT22;15750;49.600;8.746;2022-10-24T09:11:52;22.60;58.60
28548;DHT22;15750;49.600;8.746;2022-10-24T09:14:25;22.60;58.60
28548;DHT22;15750;49.600;8.746;2022-10-24T09:16:58;22.60;58.70
28548;DHT22;15750;49.600;8.746;2022-10-24T09:19:30;22.60;58.90
28548;DHT22;15750;49.600;8.746;2022-10-24T09:22:00;22.60;59.00
28548;DHT22;15750;49.600;8.746;2022-10-24T09:24:38;22.60;59.00
28548;DHT22;15750;49.600;8.746;2022-10-24T09:27:14;22.60;58.90
28548;DHT22;15750;49.600;8.746;2022-10-24T09:29:45;22.60;59.10
28548;DHT22;15750;49.600;8.746;2022-10-24T09:32:17;22.70;59.10
28548;DHT22;15750;49.600;8.746;2022-10-24T09:34:47;22.70;59.30
28548;DHT22;15750;49.600;8.746;2022-10-24T09:37:29;22.80;59.10
28548;DHT22;15750;49.600;8.746;2022-10-24T09:40:19;22.80;59.30
28548;DHT22;15750;49.600;8.746;2022-10-24T09:42:57;22.80;59.40
28548;DHT22;15750;49.600;8.746;2022-10-24T09:45:34;22.90;59.50
28548;DHT22;15750;49.600;8.746;2022-10-24T09:48:15;22.90;59.50
28548;DHT22;15750;49.600;8.746;2022-10-24T09:50:49;22.90;59.50
28548;DHT22;15750;49.600;8.746;2022-10-24T09:53:27;23.00;59.20
28548;DHT22;15750;49.600;8.746;2022-10-24T09:56:00;23.00;58.90
28548;DHT22;15750;49.600;8.746;2022-10-24T09:58:35;23.10;59.00
28548;DHT22;15750;49.600;8.746;2022-10-24T10:01:05;23.10;58.80
28548;DHT22;15750;49.600;8.746;2022-10-24T10:03:35;23.10;58.80
28548;DHT22;15750;49.600;8.746;2022-10-24T10:06:13;23.10;58.60
28548;DHT22;15750;49.600;8.746;2022-10-24T10:08:48;23.10;58.70
28548;DHT22;15750;49.600;8.746;2022-10-24T10:11:25;23.10;58.70
28548;DHT22;15750;49.600;8.746;2022-10-24T10:13:58;23.10;58.50
28548;DHT22;15750;49.600;8.746;2022-10-24T10:16:29;23.20;58.70
28548;DHT22;15750;49.600;8.746;2022-10-24T10:19:05;23.20;58.70
28548;DHT22;15750;49.600;8.746;2022-10-24T10:21:55;23.20;58.70
28548;DHT22;15750;49.600;8.746;2022-10-24T10:24:36;23.20;58.80
28548;DHT22;15750;49.600;8.746;2022-10-24T10:27:30;23.20;59.30
28548;DHT22;15750;49.600;8.746;2022-10-24T10:30:18;23.20;58.60
28548;DHT22;15750;49.600;8.746;2022-10-24T10:32:58;23.30;58.40
28548;DHT22;15750;49.600;8.746;2022-10-24T10:35:39;23.30;58.40
28548;DHT22;15750;49.600;8.746;2022-10-24T10:38:26;23.20;58.30
28548;DHT22;15750;49.600;8.746;2022-10-24T10:41:07;23.30;58.40
28548;DHT22;15750;49.600;8.746;2022-10-24T10:43:45;23.20;58.30
28548;DHT22;15750;49.600;8.746;2022-10-24T10:46:26;23.20;58.30
28548;DHT22;15750;49.600;8.746;2022-10-24T10:49:04;23.30;58.10
28548;DHT22;15750;49.600;8.746;2022-10-24T10:51:42;23.20;58.10
28548;DHT22;15750;49.600;8.746;2022-10-24T10:54:20;23.20;58.00
28548;DHT22;15750;49.600;8.746;2022-10-24T10:57:02;23.20;58.20
28548;DHT22;15750;49.600;8.746;2022-10-24T10:59:43;23.20;58.30
28548;DHT22;15750;49.600;8.746;2022-10-24T11:02:43;23.20;58.30
28548;DHT22;15750;49.600;8.746;2022-10-24T11:05:47;23.20;58.30
28548;DHT22;15750;49.600;8.746;2022-10-24T11:08:41;23.20;58.30
28548;DHT22;15750;49.600;8.746;2022-10-24T11:11:31;23.20;58.50
28548;DHT22;15750;49.600;8.746;2022-10-24T11:14:25;23.20;58.40
28548;DHT22;15750;49.600;8.746;2022-10-24T11:17:02;23.20;58.30
28548;DHT22;15750;49.600;8.746;2022-10-24T11:19:46;23.20;58.30
28548;DHT22;15750;49.600;8.746;2022-10-24T11:22:21;23.20;58.40
28548;DHT22;15750;49.600;8.746;2022-10-24T11:24:56;23.20;58.40
28548;DHT22;15750;49.600;8.746;2022-10-24T11:27:31;23.20;58.20
28548;DHT22;15750;49.600;8.746;2022-10-24T11:30:12;23.20;58.20
28548;DHT22;15750;49.600;8.746;2022-10-24T11:32:47;23.20;58.30
28548;DHT22;15750;49.600;8.746;2022-10-24T11:35:26;23.20;58.00
28548;DHT22;15750;49.600;8.746;2022-10-24T11:37:58;23.20;58.20
28548;DHT22;15750;49.600;8.746;2022-10-24T11:40:30;23.20;58.20
28548;DHT22;15750;49.600;8.746;2022-10-24T11:43:06;23.20;58.20
28548;DHT22;15750;49.600;8.746;2022-10-24T11:45:44;23.20;58.30
28548;DHT22;15750;49.600;8.746;2022-10-24T11:48:21;23.20;58.40
28548;DHT22;15750;49.600;8.746;2022-10-24T11:50:54;23.20;58.50
28548;DHT22;15750;49.600;8.746;2022-10-24T11:53:46;23.20;58.50
28548;DHT22;15750;49.600;8.746;2022-10-24T11:56:21;23.20;58.60
28548;DHT22;15750;49.600;8.746;2022-10-24T11:58:59;23.30;58.60
28548;DHT22;15750;49.600;8.746;2022-10-24T12:01:45;23.30;58.50
28548;DHT22;15750;49.600;8.746;2022-10-24T12:04:43;23.30;58.70
28548;DHT22;15750;49.600;8.746;2022-10-24T12:11:12;23.30;58.60
28548;DHT22;15750;49.600;8.746;2022-10-24T12:14:38;23.30;58.40
28548;DHT22;15750;49.600;8.746;2022-10-24T12:17:39;23.40;58.20
28548;DHT22;15750;49.600;8.746;2022-10-24T12:20:19;23.40;58.30
28548;DHT22;15750;49.600;8.746;2022-10-24T12:22:50;23.40;58.20
28548;DHT22;15750;49.600;8.746;2022-10-24T12:25:26;23.40;58.50
28548;DHT22;15750;49.600;8.746;2022-10-24T12:27:58;23.40;58.70
28548;DHT22;15750;49.600;8.746;2022-10-24T12:30:30;23.40;58.70
28548;DHT22;15750;49.600;8.746;2022-10-24T12:33:08;23.40;58.50
28548;DHT22;15750;49.600;8.746;2022-10-24T12:35:49;23.40;58.40
28548;DHT22;15750;49.600;8.746;2022-10-24T12:41:40;23.50;58.60
28548;DHT22;15750;49.600;8.746;2022-10-24T12:47:30;23.50;58.80
28548;DHT22;15750;49.600;8.746;2022-10-24T12:53:37;23.50;58.40
28548;DHT22;15750;49.600;8.746;2022-10-24T12:56:17;23.50;58.30
28548;DHT22;15750;49.600;8.746;2022-10-24T12:58:59;23.50;58.30
28548;DHT22;15750;49.600;8.746;2022-10-24T13:01:31;23.50;58.10
28548;DHT22;15750;49.600;8.746;2022-10-24T13:04:44;23.50;58.10
28548;DHT22;15750;49.600;8.746;2022-10-24T13:07:48;23.50;58.00
28548;DHT22;15750;49.600;8.746;2022-10-24T13:13:29;23.50;57.80
28548;DHT22;15750;49.600;8.746;2022-10-24T13:16:11;23.60;57.90
28548;DHT22;15750;49.600;8.746;2022-10-24T13:18:51;23.50;57.90
28548;DHT22;15750;49.600;8.746;2022-10-24T13:21:30;23.50;58.00
28548;DHT22;15750;49.600;8.746;2022-10-24T13:24:10;23.50;58.00
28548;DHT22;15750;49.600;8.746;2022-10-24T13:26:50;23.50;58.10
28548;DHT22;15750;49.600;8.746;2022-10-24T13:36:10;23.60;58.10
28548;DHT22;15750;49.600;8.746;2022-10-24T13:38:46;23.60;58.20
28548;DHT22;15750;49.600;8.746;2022-10-24T13:41:24;23.50;58.10
28548;DHT22;15750;49.600;8.746;2022-10-24T13:44:00;23.60;57.90
28548;DHT22;15750;49.600;8.746;2022-10-24T13:46:41;23.60;57.90
28548;DHT22;15750;49.600;8.746;2022-10-24T13:49:18;23.50;57.80
28548;DHT22;15750;49.600;8.746;2022-10-24T13:51:51;23.50;57.80
28548;DHT22;15750;49.600;8.746;2022-10-24T13:54:25;23.50;57.80
28548;DHT22;15750;49.600;8.746;2022-10-24T13:56:57;23.50;57.80
28548;DHT22;15750;49.600;8.746;2022-10-24T13:59:32;23.50;57.90
28548;DHT22;15750;49.600;8.746;2022-10-24T14:02:05;23.50;57.90
28548;DHT22;15750;49.600;8.746;2022-10-24T14:04:35;23.50;57.80
28548;DHT22;15750;49.600;8.746;2022-10-24T14:07:06;23.50;57.90
28548;DHT22;15750;49.600;8.746;2022-10-24T14:09:40;23.50;57.90
28548;DHT22;15750;49.600;8.746;2022-10-24T14:12:17;23.50;58.50
28548;DHT22;15750;49.600;8.746;2022-10-24T14:14:50;23.50;57.70
28548;DHT22;15750;49.600;8.746;2022-10-24T14:17:24;23.50;57.60
28548;DHT22;15750;49.600;8.746;2022-10-24T14:19:56;23.50;57.80
28548;DHT22;15750;49.600;8.746;2022-10-24T14:22:28;23.50;57.60
28548;DHT22;15750;49.600;8.746;2022-10-24T14:25:03;23.50;57.70
28548;DHT22;15750;49.600;8.746;2022-10-24T14:27:32;23.50;58.00
28548;DHT22;15750;49.600;8.746;2022-10-24T14:30:04;23.50;57.70
28548;DHT22;15750;49.600;8.746;2022-10-24T14:32:33;23.40;57.60
28548;DHT22;15750;49.600;8.746;2022-10-24T14:35:02;23.40;57.50
28548;DHT22;15750;49.600;8.746;2022-10-24T14:37:34;23.40;57.50
28548;DHT22;15750;49.600;8.746;2022-10-24T14:40:05;23.40;57.30
28548;DHT22;15750;49.600;8.746;2022-10-24T14:42:43;23.40;57.40
28548;DHT22;15750;49.600;8.746;2022-10-24T14:45:28;23.40;57.40
28548;DHT22;15750;49.600;8.746;2022-10-24T14:47:59;23.40;57.40
28548;DHT22;15750;49.600;8.746;2022-10-24T14:50:33;23.40;57.30
28548;DHT22;15750;49.600;8.746;2022-10-24T14:53:04;23.40;57.40
28548;DHT22;15750;49.600;8.746;2022-10-24T14:55:33;23.40;57.50
28548;DHT22;15750;49.600;8.746;2022-10-24T14:58:03;23.40;57.30
28548;DHT22;15750;49.600;8.746;2022-10-24T15:00:38;23.40;57.30
28548;DHT22;15750;49.600;8.746;2022-10-24T15:03:09;23.40;57.30
28548;DHT22;15750;49.600;8.746;2022-10-24T15:05:38;23.40;57.30
28548;DHT22;15750;49.600;8.746;2022-10-24T15:08:26;23.40;57.30
28548;DHT22;15750;49.600;8.746;2022-10-24T15:11:19;23.40;57.20
28548;DHT22;15750;49.600;8.746;2022-10-24T15:13:52;23.40;57.10
28548;DHT22;15750;49.600;8.746;2022-10-24T15:16:36;23.40;57.10
28548;DHT22;15750;49.600;8.746;2022-10-24T15:19:21;23.40;57.20
28548;DHT22;15750;49.600;8.746;2022-10-24T15:21:52;23.40;57.20
28548;DHT22;15750;49.600;8.746;2022-10-24T15:24:23;23.40;57.20
28548;DHT22;15750;49.600;8.746;2022-10-24T15:27:08;23.40;57.20
28548;DHT22;15750;49.600;8.746;2022-10-24T15:29:38;23.40;57.20
28548;DHT22;15750;49.600;8.746;2022-10-24T15:32:09;23.40;57.20
28548;DHT22;15750;49.600;8.746;2022-10-24T15:34:38;23.40;57.30
28548;DHT22;15750;49.600;8.746;2022-10-24T15:37:18;23.40;57.30
28548;DHT22;15750;49.600;8.746;2022-10-24T15:39:48;23.30;57.10
28548;DHT22;15750;49.600;8.746;2022-10-24T15:42:17;23.40;57.30
28548;DHT22;15750;49.600;8.746;2022-10-24T15:44:49;23.30;57.10
28548;DHT22;15750;49.600;8.746;2022-10-24T15:47:19;23.30;57.30
28548;DHT22;15750;49.600;8.746;2022-10-24T15:49:50;23.30;57.10
28548;DHT22;15750;49.600;8.746;2022-10-24T15:52:18;23.30;57.20
28548;DHT22;15750;49.600;8.746;2022-10-24T15:54:47;23.30;57.20
28548;DHT22;15750;49.600;8.746;2022-10-24T15:57:17;23.30;57.20
28548;DHT22;15750;49.600;8.746;2022-10-24T15:59:46;23.30;57.20
28548;DHT22;15750;49.600;8.746;2022-10-24T16:02:20;23.30;57.20
28548;DHT22;15750;49.600;8.746;2022-10-24T16:04:50;23.30;57.20
28548;DHT22;15750;49.600;8.746;2022-10-24T16:07:19;23.30;57.20
28548;DHT22;15750;49.600;8.746;2022-10-24T16:09:47;23.20;57.20
28548;DHT22;15750;49.600;8.746;2022-10-24T16:12:16;23.30;57.20
28548;DHT22;15750;49.600;8.746;2022-10-24T16:14:50;23.20;57.20
28548;DHT22;15750;49.600;8.746;2022-10-24T16:17:22;23.20;57.10
28548;DHT22;15750;49.600;8.746;2022-10-24T16:19:51;23.20;56.90
28548;DHT22;15750;49.600;8.746;2022-10-24T16:22:19;23.20;57.00
28548;DHT22;15750;49.600;8.746;2022-10-24T16:24:48;23.20;57.00
28548;DHT22;15750;49.600;8.746;2022-10-24T16:27:16;23.20;57.00
28548;DHT22;15750;49.600;8.746;2022-10-24T16:29:45;23.20;57.00
28548;DHT22;15750;49.600;8.746;2022-10-24T16:32:14;23.20;57.00
28548;DHT22;15750;49.600;8.746;2022-10-24T16:34:44;23.20;57.00
28548;DHT22;15750;49.600;8.746;2022-10-24T16:37:15;23.10;57.00
28548;DHT22;15750;49.600;8.746;2022-10-24T16:39:44;23.10;57.00
28548;DHT22;15750;49.600;8.746;2022-10-24T16:42:13;23.10;57.00
28548;DHT22;15750;49.600;8.746;2022-10-24T16:44:45;23.10;57.00
28548;DHT22;15750;49.600;8.746;2022-10-24T16:47:13;23.10;57.00
28548;DHT22;15750;49.600;8.746;2022-10-24T16:49:44;23.10;57.00
28548;DHT22;15750;49.600;8.746;2022-10-24T16:52:12;23.10;57.10
28548;DHT22;15750;49.600;8.746;2022-10-24T16:54:41;23.10;57.10
28548;DHT22;15750;49.600;8.746;2022-10-24T16:57:10;23.10;57.10
28548;DHT22;15750;49.600;8.746;2022-10-24T16:59:38;23.10;57.10
28548;DHT22;15750;49.600;8.746;2022-10-24T17:02:08;23.10;57.10
28548;DHT22;15750;49.600;8.746;2022-10-24T17:04:38;23.00;57.10
28548;DHT22;15750;49.600;8.746;2022-10-24T17:07:10;23.10;57.10
28548;DHT22;15750;49.600;8.746;2022-10-24T17:09:40;23.00;57.10
28548;DHT22;15750;49.600;8.746;2022-10-24T17:12:09;23.00;57.10
28548;DHT22;15750;49.600;8.746;2022-10-24T17:14:38;23.00;57.10
28548;DHT22;15750;49.600;8.746;2022-10-24T17:17:06;23.10;57.20